Lyerly, Georgia
Current Conditions -  °F | °C
As of 12:53 AM on Friday 28 Nov 2014 (Local Time) from KRMG Reporting Station
Clear Clear  
Wind Chill: -1°   Ceiling: Unl
Heat Index: -1°   Visibility: 10mi
Dew Point: -5°   Wind: 3mph
Humidity: 72%   Direction: 360°N
Pressure: 30.41"   Gusts: NA
Location:  34.4°N, 85.4°W
Report Text: KRMG 280553Z AUTO 36003KT 10SM CLR M01/M05 A3041 RMK AO2 SLP299 T10061050 10044 21006 50002
Loading
Personal Weather Stations






























Interactive Weather Map New forecast layout! Learn more

10-Day Weather Forecast

Advertisements
Track Severe Weather on mobile